sensor_id;sensor_type;location;lat;lon;timestamp;P1;durP1;ratioP1;P2;durP2;ratioP2
65420;SDS011;52028;50.658;14.004;2022-10-13T00:01:35;59.97;;;20.85;;
65420;SDS011;52028;50.658;14.004;2022-10-13T00:04:00;55.42;;;19.92;;
65420;SDS011;52028;50.658;14.004;2022-10-13T00:06:25;52.88;;;21.02;;
65420;SDS011;52028;50.658;14.004;2022-10-13T00:08:51;51.65;;;20.42;;
65420;SDS011;52028;50.658;14.004;2022-10-13T00:11:19;58.30;;;21.30;;
65420;SDS011;52028;50.658;14.004;2022-10-13T00:13:46;64.82;;;20.63;;
65420;SDS011;52028;50.658;14.004;2022-10-13T00:16:13;61.70;;;22.77;;
65420;SDS011;52028;50.658;14.004;2022-10-13T00:18:40;69.40;;;21.65;;
65420;SDS011;52028;50.658;14.004;2022-10-13T00:21:10;70.03;;;24.02;;
65420;SDS011;52028;50.658;14.004;2022-10-13T00:23:37;65.85;;;23.35;;
65420;SDS011;52028;50.658;14.004;2022-10-13T00:26:04;84.53;;;25.02;;
65420;SDS011;52028;50.658;14.004;2022-10-13T00:28:31;79.90;;;23.90;;
65420;SDS011;52028;50.658;14.004;2022-10-13T00:30:57;77.28;;;23.75;;
65420;SDS011;52028;50.658;14.004;2022-10-13T00:33:22;83.47;;;22.45;;
65420;SDS011;52028;50.658;14.004;2022-10-13T00:35:48;77.40;;;21.50;;
65420;SDS011;52028;50.658;14.004;2022-10-13T00:38:14;75.40;;;22.08;;
65420;SDS011;52028;50.658;14.004;2022-10-13T00:40:51;81.35;;;23.40;;
65420;SDS011;52028;50.658;14.004;2022-10-13T00:43:20;107.85;;;25.77;;
65420;SDS011;52028;50.658;14.004;2022-10-13T00:46:08;82.15;;;21.55;;
65420;SDS011;52028;50.658;14.004;2022-10-13T00:48:33;82.55;;;21.95;;
65420;SDS011;52028;50.658;14.004;2022-10-13T00:50:58;66.95;;;21.98;;
65420;SDS011;52028;50.658;14.004;2022-10-13T00:53:25;70.85;;;21.58;;
65420;SDS011;52028;50.658;14.004;2022-10-13T00:55:55;69.38;;;22.30;;
65420;SDS011;52028;50.658;14.004;2022-10-13T00:58:20;61.17;;;21.83;;
65420;SDS011;52028;50.658;14.004;2022-10-13T01:00:50;62.60;;;20.73;;
65420;SDS011;52028;50.658;14.004;2022-10-13T01:03:17;63.40;;;19.48;;
65420;SDS011;52028;50.658;14.004;2022-10-13T01:05:44;56.53;;;19.48;;
65420;SDS011;52028;50.658;14.004;2022-10-13T01:08:10;59.17;;;18.25;;
65420;SDS011;52028;50.658;14.004;2022-10-13T01:30:17;69.38;;;18.27;;
65420;SDS011;52028;50.658;14.004;2022-10-13T01:38:33;53.53;;;14.95;;
65420;SDS011;52028;50.658;14.004;2022-10-13T01:41:13;80.50;;;17.95;;
65420;SDS011;52028;50.658;14.004;2022-10-13T01:43:52;56.72;;;16.45;;
65420;SDS011;52028;50.658;14.004;2022-10-13T01:46:26;51.47;;;17.20;;
65420;SDS011;52028;50.658;14.004;2022-10-13T01:48:55;51.40;;;17.42;;
65420;SDS011;52028;50.658;14.004;2022-10-13T01:51:24;60.65;;;18.63;;
65420;SDS011;52028;50.658;14.004;2022-10-13T01:53:52;55.20;;;18.08;;
65420;SDS011;52028;50.658;14.004;2022-10-13T01:56:17;76.57;;;17.85;;
65420;SDS011;52028;50.658;14.004;2022-10-13T01:58:42;44.08;;;16.20;;
65420;SDS011;52028;50.658;14.004;2022-10-13T02:01:26;45.20;;;15.68;;
65420;SDS011;52028;50.658;14.004;2022-10-13T02:06:31;49.70;;;17.05;;
65420;SDS011;52028;50.658;14.004;2022-10-13T02:09:13;45.50;;;17.73;;
65420;SDS011;52028;50.658;14.004;2022-10-13T02:11:53;46.92;;;18.02;;
65420;SDS011;52028;50.658;14.004;2022-10-13T02:14:24;56.35;;;18.08;;
65420;SDS011;52028;50.658;14.004;2022-10-13T02:16:53;45.20;;;15.75;;
65420;SDS011;52028;50.658;14.004;2022-10-13T02:19:21;52.15;;;18.15;;
65420;SDS011;52028;50.658;14.004;2022-10-13T02:21:47;50.47;;;19.88;;
65420;SDS011;52028;50.658;14.004;2022-10-13T02:24:13;57.22;;;18.10;;
65420;SDS011;52028;50.658;14.004;2022-10-13T02:26:38;37.15;;;15.80;;
65420;SDS011;52028;50.658;14.004;2022-10-13T02:29:07;48.35;;;16.25;;
65420;SDS011;52028;50.658;14.004;2022-10-13T02:31:34;47.58;;;17.38;;
65420;SDS011;52028;50.658;14.004;2022-10-13T02:34:00;43.75;;;16.13;;
65420;SDS011;52028;50.658;14.004;2022-10-13T02:36:25;40.55;;;15.48;;
65420;SDS011;52028;50.658;14.004;2022-10-13T02:38:50;59.47;;;16.52;;
65420;SDS011;52028;50.658;14.004;2022-10-13T02:41:16;41.50;;;16.48;;
65420;SDS011;52028;50.658;14.004;2022-10-13T02:43:41;45.58;;;19.58;;
65420;SDS011;52028;50.658;14.004;2022-10-13T02:46:06;49.17;;;18.42;;
65420;SDS011;52028;50.658;14.004;2022-10-13T02:48:31;52.33;;;17.35;;
65420;SDS011;52028;50.658;14.004;2022-10-13T02:50:57;68.60;;;19.00;;
65420;SDS011;52028;50.658;14.004;2022-10-13T02:53:22;55.70;;;18.65;;
65420;SDS011;52028;50.658;14.004;2022-10-13T02:55:47;80.32;;;18.73;;
65420;SDS011;52028;50.658;14.004;2022-10-13T02:58:13;80.05;;;19.88;;
65420;SDS011;52028;50.658;14.004;2022-10-13T03:00:38;61.85;;;19.50;;
65420;SDS011;52028;50.658;14.004;2022-10-13T03:03:04;55.38;;;16.75;;
65420;SDS011;52028;50.658;14.004;2022-10-13T03:05:30;71.53;;;18.73;;
65420;SDS011;52028;50.658;14.004;2022-10-13T03:07:55;66.68;;;18.83;;
65420;SDS011;52028;50.658;14.004;2022-10-13T03:10:20;69.07;;;17.17;;
65420;SDS011;52028;50.658;14.004;2022-10-13T03:12:46;78.68;;;17.50;;
65420;SDS011;52028;50.658;14.004;2022-10-13T03:15:11;74.50;;;17.90;;
65420;SDS011;52028;50.658;14.004;2022-10-13T03:17:37;79.40;;;18.08;;
65420;SDS011;52028;50.658;14.004;2022-10-13T03:20:02;93.20;;;20.00;;
65420;SDS011;52028;50.658;14.004;2022-10-13T03:22:30;105.20;;;19.75;;
65420;SDS011;52028;50.658;14.004;2022-10-13T03:24:56;79.53;;;18.13;;
65420;SDS011;52028;50.658;14.004;2022-10-13T03:27:21;78.28;;;20.52;;
65420;SDS011;52028;50.658;14.004;2022-10-13T03:29:47;104.88;;;19.83;;
65420;SDS011;52028;50.658;14.004;2022-10-13T03:32:12;48.58;;;18.55;;
65420;SDS011;52028;50.658;14.004;2022-10-13T03:34:37;59.97;;;17.40;;
65420;SDS011;52028;50.658;14.004;2022-10-13T03:37:03;81.35;;;19.10;;
65420;SDS011;52028;50.658;14.004;2022-10-13T03:39:28;88.35;;;19.38;;
65420;SDS011;52028;50.658;14.004;2022-10-13T03:41:53;38.03;;;16.90;;
65420;SDS011;52028;50.658;14.004;2022-10-13T03:44:19;51.75;;;15.50;;
65420;SDS011;52028;50.658;14.004;2022-10-13T03:46:44;57.75;;;16.17;;
65420;SDS011;52028;50.658;14.004;2022-10-13T03:49:10;56.03;;;16.90;;
65420;SDS011;52028;50.658;14.004;2022-10-13T03:51:36;53.38;;;17.52;;
65420;SDS011;52028;50.658;14.004;2022-10-13T03:54:01;47.58;;;17.95;;
65420;SDS011;52028;50.658;14.004;2022-10-13T03:56:27;46.70;;;16.52;;
65420;SDS011;52028;50.658;14.004;2022-10-13T03:58:56;57.10;;;16.42;;
65420;SDS011;52028;50.658;14.004;2022-10-13T04:01:24;40.45;;;16.58;;
65420;SDS011;52028;50.658;14.004;2022-10-13T04:03:52;52.78;;;18.00;;
65420;SDS011;52028;50.658;14.004;2022-10-13T04:06:18;59.30;;;18.25;;
65420;SDS011;52028;50.658;14.004;2022-10-13T04:08:44;42.65;;;17.05;;
65420;SDS011;52028;50.658;14.004;2022-10-13T04:11:11;58.78;;;14.93;;
65420;SDS011;52028;50.658;14.004;2022-10-13T04:13:38;41.75;;;15.55;;
65420;SDS011;52028;50.658;14.004;2022-10-13T04:16:04;52.03;;;14.82;;
65420;SDS011;52028;50.658;14.004;2022-10-13T04:18:38;65.93;;;16.05;;
65420;SDS011;52028;50.658;14.004;2022-10-13T04:21:11;106.95;;;17.83;;
65420;SDS011;52028;50.658;14.004;2022-10-13T04:23:38;37.70;;;15.88;;
65420;SDS011;52028;50.658;14.004;2022-10-13T04:26:04;69.45;;;16.90;;
65420;SDS011;52028;50.658;14.004;2022-10-13T04:28:30;48.05;;;16.70;;
65420;SDS011;52028;50.658;14.004;2022-10-13T04:30:59;56.65;;;16.13;;
65420;SDS011;52028;50.658;14.004;2022-10-13T04:33:25;65.35;;;19.58;;
65420;SDS011;52028;50.658;14.004;2022-10-13T04:35:50;69.00;;;20.73;;
65420;SDS011;52028;50.658;14.004;2022-10-13T04:38:16;41.42;;;18.67;;
65420;SDS011;52028;50.658;14.004;2022-10-13T04:40:41;52.83;;;18.70;;
65420;SDS011;52028;50.658;14.004;2022-10-13T04:43:06;68.50;;;18.10;;
65420;SDS011;52028;50.658;14.004;2022-10-13T04:45:32;48.90;;;17.58;;
65420;SDS011;52028;50.658;14.004;2022-10-13T04:47:57;57.63;;;16.27;;
65420;SDS011;52028;50.658;14.004;2022-10-13T04:50:24;50.60;;;17.15;;
65420;SDS011;52028;50.658;14.004;2022-10-13T04:52:50;51.38;;;17.88;;
65420;SDS011;52028;50.658;14.004;2022-10-13T04:55:15;77.60;;;18.05;;
65420;SDS011;52028;50.658;14.004;2022-10-13T04:57:40;56.67;;;18.80;;
65420;SDS011;52028;50.658;14.004;2022-10-13T05:00:06;73.72;;;18.40;;
65420;SDS011;52028;50.658;14.004;2022-10-13T05:02:33;57.72;;;18.92;;
65420;SDS011;52028;50.658;14.004;2022-10-13T05:04:59;50.72;;;18.35;;
65420;SDS011;52028;50.658;14.004;2022-10-13T05:07:24;51.13;;;18.88;;
65420;SDS011;52028;50.658;14.004;2022-10-13T05:09:50;72.82;;;19.52;;
65420;SDS011;52028;50.658;14.004;2022-10-13T05:12:15;72.70;;;19.92;;
65420;SDS011;52028;50.658;14.004;2022-10-13T05:14:41;62.33;;;19.13;;
65420;SDS011;52028;50.658;14.004;2022-10-13T05:17:06;75.18;;;21.80;;
65420;SDS011;52028;50.658;14.004;2022-10-13T05:19:31;81.35;;;21.35;;
65420;SDS011;52028;50.658;14.004;2022-10-13T05:21:57;66.28;;;22.48;;
65420;SDS011;52028;50.658;14.004;2022-10-13T05:24:22;93.68;;;22.17;;
65420;SDS011;52028;50.658;14.004;2022-10-13T05:26:55;49.20;;;18.85;;
65420;SDS011;52028;50.658;14.004;2022-10-13T05:29:21;47.60;;;19.30;;
65420;SDS011;52028;50.658;14.004;2022-10-13T05:31:46;48.35;;;18.00;;
65420;SDS011;52028;50.658;14.004;2022-10-13T05:34:12;43.25;;;17.85;;
65420;SDS011;52028;50.658;14.004;2022-10-13T05:36:38;43.10;;;17.42;;
65420;SDS011;52028;50.658;14.004;2022-10-13T05:39:04;40.53;;;18.40;;
65420;SDS011;52028;50.658;14.004;2022-10-13T05:41:31;45.28;;;17.67;;
65420;SDS011;52028;50.658;14.004;2022-10-13T05:43:57;57.50;;;19.40;;
65420;SDS011;52028;50.658;14.004;2022-10-13T05:46:25;47.13;;;19.08;;
65420;SDS011;52028;50.658;14.004;2022-10-13T05:48:51;45.15;;;18.77;;
65420;SDS011;52028;50.658;14.004;2022-10-13T05:51:18;53.03;;;19.95;;
65420;SDS011;52028;50.658;14.004;2022-10-13T05:53:50;45.78;;;18.75;;
65420;SDS011;52028;50.658;14.004;2022-10-13T05:56:22;45.15;;;19.33;;
65420;SDS011;52028;50.658;14.004;2022-10-13T05:58:53;46.13;;;18.60;;
65420;SDS011;52028;50.658;14.004;2022-10-13T06:01:22;50.63;;;18.70;;
65420;SDS011;52028;50.658;14.004;2022-10-13T06:03:51;50.13;;;20.48;;
65420;SDS011;52028;50.658;14.004;2022-10-13T06:06:18;49.75;;;20.27;;
65420;SDS011;52028;50.658;14.004;2022-10-13T06:08:44;49.13;;;20.38;;
65420;SDS011;52028;50.658;14.004;2022-10-13T06:11:09;56.33;;;22.88;;
65420;SDS011;52028;50.658;14.004;2022-10-13T06:13:35;53.90;;;20.77;;
65420;SDS011;52028;50.658;14.004;2022-10-13T06:16:00;55.22;;;22.00;;
65420;SDS011;52028;50.658;14.004;2022-10-13T06:18:29;49.25;;;20.23;;
65420;SDS011;52028;50.658;14.004;2022-10-13T06:20:54;49.97;;;19.13;;
65420;SDS011;52028;50.658;14.004;2022-10-13T06:23:19;52.33;;;21.00;;
65420;SDS011;52028;50.658;14.004;2022-10-13T06:25:46;57.38;;;25.45;;
65420;SDS011;52028;50.658;14.004;2022-10-13T06:28:12;62.42;;;24.27;;
65420;SDS011;52028;50.658;14.004;2022-10-13T06:30:37;62.42;;;23.10;;
65420;SDS011;52028;50.658;14.004;2022-10-13T06:33:03;51.45;;;22.55;;
65420;SDS011;52028;50.658;14.004;2022-10-13T06:35:28;60.45;;;24.80;;
65420;SDS011;52028;50.658;14.004;2022-10-13T06:37:54;52.70;;;22.38;;
65420;SDS011;52028;50.658;14.004;2022-10-13T06:40:21;63.47;;;20.75;;
65420;SDS011;52028;50.658;14.004;2022-10-13T06:42:49;50.55;;;21.52;;
65420;SDS011;52028;50.658;14.004;2022-10-13T06:45:15;49.28;;;20.10;;
65420;SDS011;52028;50.658;14.004;2022-10-13T06:47:40;55.92;;;22.27;;
65420;SDS011;52028;50.658;14.004;2022-10-13T06:50:05;63.42;;;25.48;;
65420;SDS011;52028;50.658;14.004;2022-10-13T06:52:32;59.42;;;24.15;;
65420;SDS011;52028;50.658;14.004;2022-10-13T06:54:58;58.65;;;24.08;;
65420;SDS011;52028;50.658;14.004;2022-10-13T06:57:23;55.80;;;25.35;;
65420;SDS011;52028;50.658;14.004;2022-10-13T06:59:48;59.40;;;25.10;;
65420;SDS011;52028;50.658;14.004;2022-10-13T07:02:14;57.75;;;23.83;;
65420;SDS011;52028;50.658;14.004;2022-10-13T07:04:39;52.42;;;23.70;;
65420;SDS011;52028;50.658;14.004;2022-10-13T07:07:04;52.10;;;23.75;;
65420;SDS011;52028;50.658;14.004;2022-10-13T07:09:30;50.42;;;22.02;;
65420;SDS011;52028;50.658;14.004;2022-10-13T07:11:55;46.50;;;21.15;;
65420;SDS011;52028;50.658;14.004;2022-10-13T07:14:21;48.45;;;21.95;;
65420;SDS011;52028;50.658;14.004;2022-10-13T07:16:46;51.05;;;22.98;;
65420;SDS011;52028;50.658;14.004;2022-10-13T07:19:12;43.90;;;20.15;;
65420;SDS011;52028;50.658;14.004;2022-10-13T07:21:37;50.72;;;21.52;;
65420;SDS011;52028;50.658;14.004;2022-10-13T07:24:03;44.10;;;20.17;;
65420;SDS011;52028;50.658;14.004;2022-10-13T07:26:28;54.88;;;25.17;;
65420;SDS011;52028;50.658;14.004;2022-10-13T07:28:54;52.35;;;24.33;;
65420;SDS011;52028;50.658;14.004;2022-10-13T07:31:19;65.30;;;24.48;;
65420;SDS011;52028;50.658;14.004;2022-10-13T07:33:46;50.47;;;22.20;;
65420;SDS011;52028;50.658;14.004;2022-10-13T07:36:12;50.45;;;24.23;;
65420;SDS011;52028;50.658;14.004;2022-10-13T07:38:38;44.67;;;20.23;;
65420;SDS011;52028;50.658;14.004;2022-10-13T07:41:07;50.92;;;21.67;;
65420;SDS011;52028;50.658;14.004;2022-10-13T07:46:00;47.03;;;19.80;;
65420;SDS011;52028;50.658;14.004;2022-10-13T07:48:28;43.25;;;21.50;;
65420;SDS011;52028;50.658;14.004;2022-10-13T07:50:55;48.13;;;20.70;;
65420;SDS011;52028;50.658;14.004;2022-10-13T07:53:20;48.30;;;22.77;;
65420;SDS011;52028;50.658;14.004;2022-10-13T07:55:46;46.30;;;20.65;;
65420;SDS011;52028;50.658;14.004;2022-10-13T07:58:11;48.08;;;22.95;;
65420;SDS011;52028;50.658;14.004;2022-10-13T08:00:36;52.95;;;24.05;;
65420;SDS011;52028;50.658;14.004;2022-10-13T08:03:02;48.30;;;23.52;;
65420;SDS011;52028;50.658;14.004;2022-10-13T08:05:27;54.03;;;21.55;;
65420;SDS011;52028;50.658;14.004;2022-10-13T08:07:52;54.33;;;24.10;;
65420;SDS011;52028;50.658;14.004;2022-10-13T08:10:18;50.95;;;22.52;;
65420;SDS011;52028;50.658;14.004;2022-10-13T08:12:43;51.72;;;22.15;;
65420;SDS011;52028;50.658;14.004;2022-10-13T08:15:09;47.85;;;21.77;;
65420;SDS011;52028;50.658;14.004;2022-10-13T08:17:34;47.17;;;23.10;;
65420;SDS011;52028;50.658;14.004;2022-10-13T08:20:00;51.35;;;22.13;;
65420;SDS011;52028;50.658;14.004;2022-10-13T08:22:26;56.65;;;23.02;;
65420;SDS011;52028;50.658;14.004;2022-10-13T08:24:51;42.63;;;22.30;;
65420;SDS011;52028;50.658;14.004;2022-10-13T08:27:18;47.72;;;22.33;;
65420;SDS011;52028;50.658;14.004;2022-10-13T08:29:45;44.28;;;21.20;;
65420;SDS011;52028;50.658;14.004;2022-10-13T08:32:11;43.22;;;22.35;;
65420;SDS011;52028;50.658;14.004;2022-10-13T08:34:36;49.10;;;22.80;;
65420;SDS011;52028;50.658;14.004;2022-10-13T08:37:02;51.60;;;22.02;;
65420;SDS011;52028;50.658;14.004;2022-10-13T08:39:35;47.60;;;21.67;;
65420;SDS011;52028;50.658;14.004;2022-10-13T08:42:02;47.65;;;22.92;;
65420;SDS011;52028;50.658;14.004;2022-10-13T08:44:40;47.92;;;23.35;;
65420;SDS011;52028;50.658;14.004;2022-10-13T08:49:50;43.60;;;22.63;;
65420;SDS011;52028;50.658;14.004;2022-10-13T08:52:18;42.85;;;21.55;;
65420;SDS011;52028;50.658;14.004;2022-10-13T08:54:47;45.58;;;22.20;;
65420;SDS011;52028;50.658;14.004;2022-10-13T08:57:13;52.13;;;23.45;;
65420;SDS011;52028;50.658;14.004;2022-10-13T08:59:38;45.92;;;21.35;;
65420;SDS011;52028;50.658;14.004;2022-10-13T09:02:08;47.85;;;21.70;;
65420;SDS011;52028;50.658;14.004;2022-10-13T09:04:38;42.50;;;21.50;;
65420;SDS011;52028;50.658;14.004;2022-10-13T09:07:19;49.92;;;24.08;;
65420;SDS011;52028;50.658;14.004;2022-10-13T09:09:48;48.10;;;25.23;;
65420;SDS011;52028;50.658;14.004;2022-10-13T09:12:16;53.50;;;23.63;;
65420;SDS011;52028;50.658;14.004;2022-10-13T09:14:55;47.43;;;21.87;;
65420;SDS011;52028;50.658;14.004;2022-10-13T09:17:33;45.05;;;21.98;;
65420;SDS011;52028;50.658;14.004;2022-10-13T09:23:04;43.22;;;20.98;;
65420;SDS011;52028;50.658;14.004;2022-10-13T09:25:46;39.80;;;20.67;;
65420;SDS011;52028;50.658;14.004;2022-10-13T09:28:19;34.05;;;20.67;;
65420;SDS011;52028;50.658;14.004;2022-10-13T09:30:59;42.75;;;21.27;;
65420;SDS011;52028;50.658;14.004;2022-10-13T09:33:24;41.65;;;19.95;;
65420;SDS011;52028;50.658;14.004;2022-10-13T09:38:25;51.70;;;22.77;;
65420;SDS011;52028;50.658;14.004;2022-10-13T09:51:44;40.97;;;20.67;;
65420;SDS011;52028;50.658;14.004;2022-10-13T09:54:23;36.28;;;18.95;;
65420;SDS011;52028;50.658;14.004;2022-10-13T09:56:56;32.03;;;17.13;;
65420;SDS011;52028;50.658;14.004;2022-10-13T09:59:35;35.40;;;18.45;;
65420;SDS011;52028;50.658;14.004;2022-10-13T10:02:21;32.30;;;17.27;;
65420;SDS011;52028;50.658;14.004;2022-10-13T10:04:50;35.55;;;17.15;;
65420;SDS011;52028;50.658;14.004;2022-10-13T10:07:18;33.17;;;17.55;;
65420;SDS011;52028;50.658;14.004;2022-10-13T10:09:51;29.40;;;16.25;;
65420;SDS011;52028;50.658;14.004;2022-10-13T10:12:20;26.10;;;14.63;;
65420;SDS011;52028;50.658;14.004;2022-10-13T10:14:51;34.33;;;17.88;;
65420;SDS011;52028;50.658;14.004;2022-10-13T10:17:22;31.23;;;17.27;;
65420;SDS011;52028;50.658;14.004;2022-10-13T10:23:10;32.92;;;17.23;;
65420;SDS011;52028;50.658;14.004;2022-10-13T10:25:43;31.75;;;16.83;;
65420;SDS011;52028;50.658;14.004;2022-10-13T10:30:47;26.85;;;15.27;;
65420;SDS011;52028;50.658;14.004;2022-10-13T10:33:24;29.67;;;15.32;;
65420;SDS011;52028;50.658;14.004;2022-10-13T10:36:14;32.03;;;15.65;;
65420;SDS011;52028;50.658;14.004;2022-10-13T10:38:50;24.48;;;14.32;;
65420;SDS011;52028;50.658;14.004;2022-10-13T10:41:41;26.58;;;15.40;;
65420;SDS011;52028;50.658;14.004;2022-10-13T10:44:53;25.83;;;14.38;;
65420;SDS011;52028;50.658;14.004;2022-10-13T10:52:41;21.63;;;13.05;;
65420;SDS011;52028;50.658;14.004;2022-10-13T11:00:33;25.10;;;14.10;;
65420;SDS011;52028;50.658;14.004;2022-10-13T11:37:54;26.92;;;13.18;;
65420;SDS011;52028;50.658;14.004;2022-10-13T11:40:30;25.17;;;13.75;;
65420;SDS011;52028;50.658;14.004;2022-10-13T11:56:49;20.23;;;12.98;;
65420;SDS011;52028;50.658;14.004;2022-10-13T11:59:33;25.80;;;12.98;;
65420;SDS011;52028;50.658;14.004;2022-10-13T12:02:05;27.73;;;12.93;;
65420;SDS011;52028;50.658;14.004;2022-10-13T12:04:36;22.83;;;12.48;;
65420;SDS011;52028;50.658;14.004;2022-10-13T12:07:03;22.20;;;13.85;;
65420;SDS011;52028;50.658;14.004;2022-10-13T12:09:31;24.25;;;14.50;;
65420;SDS011;52028;50.658;14.004;2022-10-13T12:12:02;33.22;;;14.45;;
65420;SDS011;52028;50.658;14.004;2022-10-13T12:14:40;26.85;;;13.82;;
65420;SDS011;52028;50.658;14.004;2022-10-13T12:19:57;23.80;;;13.93;;
65420;SDS011;52028;50.658;14.004;2022-10-13T12:22:24;23.23;;;13.63;;
65420;SDS011;52028;50.658;14.004;2022-10-13T12:25:03;27.25;;;13.50;;
65420;SDS011;52028;50.658;14.004;2022-10-13T12:27:31;25.75;;;14.30;;
65420;SDS011;52028;50.658;14.004;2022-10-13T12:32:47;26.20;;;13.98;;
65420;SDS011;52028;50.658;14.004;2022-10-13T12:37:50;26.65;;;14.57;;
65420;SDS011;52028;50.658;14.004;2022-10-13T12:40:17;26.73;;;13.55;;
65420;SDS011;52028;50.658;14.004;2022-10-13T12:42:43;22.42;;;13.82;;
65420;SDS011;52028;50.658;14.004;2022-10-13T12:45:13;24.92;;;13.18;;
65420;SDS011;52028;50.658;14.004;2022-10-13T12:47:48;22.08;;;13.88;;
65420;SDS011;52028;50.658;14.004;2022-10-13T12:52:50;22.80;;;13.48;;
65420;SDS011;52028;50.658;14.004;2022-10-13T12:55:18;25.13;;;14.02;;
65420;SDS011;52028;50.658;14.004;2022-10-13T12:57:45;30.45;;;14.07;;
65420;SDS011;52028;50.658;14.004;2022-10-13T13:02:58;29.17;;;14.57;;
65420;SDS011;52028;50.658;14.004;2022-10-13T13:05:32;29.50;;;14.90;;
65420;SDS011;52028;50.658;14.004;2022-10-13T13:11:04;34.08;;;15.88;;
65420;SDS011;52028;50.658;14.004;2022-10-13T13:13:33;29.00;;;15.65;;
65420;SDS011;52028;50.658;14.004;2022-10-13T13:18:47;32.47;;;16.33;;
65420;SDS011;52028;50.658;14.004;2022-10-13T13:21:15;29.38;;;18.10;;
65420;SDS011;52028;50.658;14.004;2022-10-13T13:23:41;35.33;;;17.13;;
65420;SDS011;52028;50.658;14.004;2022-10-13T13:26:11;28.55;;;16.10;;
65420;SDS011;52028;50.658;14.004;2022-10-13T13:28:42;29.45;;;16.23;;
65420;SDS011;52028;50.658;14.004;2022-10-13T13:31:11;33.78;;;18.10;;
65420;SDS011;52028;50.658;14.004;2022-10-13T13:33:37;33.60;;;17.05;;
65420;SDS011;52028;50.658;14.004;2022-10-13T13:36:03;29.58;;;15.52;;
65420;SDS011;52028;50.658;14.004;2022-10-13T13:38:33;31.77;;;17.45;;
65420;SDS011;52028;50.658;14.004;2022-10-13T13:40:59;29.52;;;16.17;;
65420;SDS011;52028;50.658;14.004;2022-10-13T13:43:24;29.17;;;17.40;;
65420;SDS011;52028;50.658;14.004;2022-10-13T13:45:49;30.30;;;16.10;;
65420;SDS011;52028;50.658;14.004;2022-10-13T13:48:18;28.05;;;16.50;;
65420;SDS011;52028;50.658;14.004;2022-10-13T13:50:43;26.27;;;16.40;;
65420;SDS011;52028;50.658;14.004;2022-10-13T13:53:08;35.00;;;18.48;;
65420;SDS011;52028;50.658;14.004;2022-10-13T13:55:34;33.60;;;16.25;;
65420;SDS011;52028;50.658;14.004;2022-10-13T13:57:59;35.97;;;17.15;;
65420;SDS011;52028;50.658;14.004;2022-10-13T14:00:25;28.75;;;16.80;;
65420;SDS011;52028;50.658;14.004;2022-10-13T14:02:50;31.85;;;16.40;;
65420;SDS011;52028;50.658;14.004;2022-10-13T14:05:16;28.27;;;16.10;;
65420;SDS011;52028;50.658;14.004;2022-10-13T14:07:41;30.30;;;15.75;;
65420;SDS011;52028;50.658;14.004;2022-10-13T14:10:07;33.45;;;16.88;;
65420;SDS011;52028;50.658;14.004;2022-10-13T14:12:33;30.73;;;17.15;;
65420;SDS011;52028;50.658;14.004;2022-10-13T14:14:59;30.67;;;16.88;;
65420;SDS011;52028;50.658;14.004;2022-10-13T14:17:25;36.30;;;17.77;;
65420;SDS011;52028;50.658;14.004;2022-10-13T14:19:51;30.88;;;17.40;;
65420;SDS011;52028;50.658;14.004;2022-10-13T14:22:16;41.03;;;17.67;;
65420;SDS011;52028;50.658;14.004;2022-10-13T14:24:42;35.75;;;16.58;;
65420;SDS011;52028;50.658;14.004;2022-10-13T14:27:07;32.38;;;16.08;;
65420;SDS011;52028;50.658;14.004;2022-10-13T14:29:35;28.17;;;15.63;;
65420;SDS011;52028;50.658;14.004;2022-10-13T14:32:01;26.92;;;15.57;;
65420;SDS011;52028;50.658;14.004;2022-10-13T14:34:27;28.27;;;15.73;;
65420;SDS011;52028;50.658;14.004;2022-10-13T14:36:52;28.80;;;16.20;;
65420;SDS011;52028;50.658;14.004;2022-10-13T14:39:18;35.25;;;17.25;;
65420;SDS011;52028;50.658;14.004;2022-10-13T14:41:43;31.60;;;17.95;;
65420;SDS011;52028;50.658;14.004;2022-10-13T14:44:10;36.60;;;18.10;;
65420;SDS011;52028;50.658;14.004;2022-10-13T14:46:37;33.73;;;16.77;;
65420;SDS011;52028;50.658;14.004;2022-10-13T14:49:03;31.15;;;17.50;;
65420;SDS011;52028;50.658;14.004;2022-10-13T14:51:29;31.77;;;18.70;;
65420;SDS011;52028;50.658;14.004;2022-10-13T14:53:55;32.53;;;18.10;;
65420;SDS011;52028;50.658;14.004;2022-10-13T14:56:22;31.83;;;17.83;;
65420;SDS011;52028;50.658;14.004;2022-10-13T14:58:55;32.30;;;18.80;;
65420;SDS011;52028;50.658;14.004;2022-10-13T15:01:21;37.20;;;19.33;;
65420;SDS011;52028;50.658;14.004;2022-10-13T15:03:46;33.67;;;19.35;;
65420;SDS011;52028;50.658;14.004;2022-10-13T15:06:13;37.30;;;18.98;;
65420;SDS011;52028;50.658;14.004;2022-10-13T15:08:43;31.38;;;18.48;;
65420;SDS011;52028;50.658;14.004;2022-10-13T15:11:10;33.85;;;18.50;;
65420;SDS011;52028;50.658;14.004;2022-10-13T15:13:36;38.10;;;18.73;;
65420;SDS011;52028;50.658;14.004;2022-10-13T15:16:01;34.60;;;18.23;;
65420;SDS011;52028;50.658;14.004;2022-10-13T15:18:28;39.83;;;17.35;;
65420;SDS011;52028;50.658;14.004;2022-10-13T15:20:55;36.80;;;18.13;;
65420;SDS011;52028;50.658;14.004;2022-10-13T15:23:21;36.30;;;18.98;;
65420;SDS011;52028;50.658;14.004;2022-10-13T15:28:16;34.42;;;18.92;;
65420;SDS011;52028;50.658;14.004;2022-10-13T15:30:42;39.63;;;20.58;;
65420;SDS011;52028;50.658;14.004;2022-10-13T15:33:07;40.90;;;20.85;;
65420;SDS011;52028;50.658;14.004;2022-10-13T15:35:32;41.28;;;20.67;;
65420;SDS011;52028;50.658;14.004;2022-10-13T15:37:58;44.35;;;24.42;;
65420;SDS011;52028;50.658;14.004;2022-10-13T15:40:23;44.58;;;21.98;;
65420;SDS011;52028;50.658;14.004;2022-10-13T15:42:48;42.47;;;21.35;;
65420;SDS011;52028;50.658;14.004;2022-10-13T15:45:14;63.67;;;31.58;;
65420;SDS011;52028;50.658;14.004;2022-10-13T15:47:39;69.97;;;31.00;;
65420;SDS011;52028;50.658;14.004;2022-10-13T15:50:05;186.43;;;78.13;;
65420;SDS011;52028;50.658;14.004;2022-10-13T15:52:31;93.63;;;42.88;;
65420;SDS011;52028;50.658;14.004;2022-10-13T15:55:01;57.15;;;28.58;;
65420;SDS011;52028;50.658;14.004;2022-10-13T15:57:27;54.38;;;28.85;;
65420;SDS011;52028;50.658;14.004;2022-10-13T15:59:54;42.78;;;20.70;;
65420;SDS011;52028;50.658;14.004;2022-10-13T16:02:20;31.45;;;16.17;;
65420;SDS011;52028;50.658;14.004;2022-10-13T16:04:47;26.20;;;15.23;;
65420;SDS011;52028;50.658;14.004;2022-10-13T16:07:12;29.27;;;14.73;;
65420;SDS011;52028;50.658;14.004;2022-10-13T16:09:37;25.50;;;14.95;;
65420;SDS011;52028;50.658;14.004;2022-10-13T16:12:02;27.70;;;15.10;;
65420;SDS011;52028;50.658;14.004;2022-10-13T16:14:28;29.77;;;14.80;;
65420;SDS011;52028;50.658;14.004;2022-10-13T16:16:53;28.35;;;14.77;;
65420;SDS011;52028;50.658;14.004;2022-10-13T16:19:19;28.85;;;15.93;;
65420;SDS011;52028;50.658;14.004;2022-10-13T16:21:44;27.23;;;15.32;;
65420;SDS011;52028;50.658;14.004;2022-10-13T16:24:10;89.80;;;45.47;;
65420;SDS011;52028;50.658;14.004;2022-10-13T16:26:36;80.90;;;39.22;;
65420;SDS011;52028;50.658;14.004;2022-10-13T16:29:01;91.25;;;45.40;;